sensor_id;sensor_type;location;lat;lon;timestamp;P1;durP1;ratioP1;P2;durP2;ratioP2
51921;SDS011;37948;53.260;6.394;2022-08-06T00:02:20;2.20;;;1.25;;
51921;SDS011;37948;53.260;6.394;2022-08-06T00:04:48;2.33;;;1.27;;
51921;SDS011;37948;53.260;6.394;2022-08-06T00:07:14;1.70;;;1.00;;
51921;SDS011;37948;53.260;6.394;2022-08-06T00:09:39;1.95;;;1.35;;
51921;SDS011;37948;53.260;6.394;2022-08-06T00:12:05;2.33;;;1.00;;
51921;SDS011;37948;53.260;6.394;2022-08-06T00:14:32;3.17;;;1.02;;
51921;SDS011;37948;53.260;6.394;2022-08-06T00:16:58;3.05;;;1.33;;
51921;SDS011;37948;53.260;6.394;2022-08-06T00:19:24;3.83;;;1.10;;
51921;SDS011;37948;53.260;6.394;2022-08-06T00:21:51;3.60;;;1.23;;
51921;SDS011;37948;53.260;6.394;2022-08-06T00:24:17;5.15;;;1.20;;
51921;SDS011;37948;53.260;6.394;2022-08-06T00:26:43;3.17;;;1.15;;
51921;SDS011;37948;53.260;6.394;2022-08-06T00:29:09;1.05;;;0.80;;
51921;SDS011;37948;53.260;6.394;2022-08-06T00:31:34;1.77;;;1.10;;
51921;SDS011;37948;53.260;6.394;2022-08-06T00:34:00;1.50;;;1.10;;
51921;SDS011;37948;53.260;6.394;2022-08-06T00:36:29;1.30;;;1.00;;
51921;SDS011;37948;53.260;6.394;2022-08-06T00:38:56;2.35;;;1.25;;
51921;SDS011;37948;53.260;6.394;2022-08-06T00:41:23;2.65;;;1.35;;
51921;SDS011;37948;53.260;6.394;2022-08-06T00:43:49;3.47;;;1.63;;
51921;SDS011;37948;53.260;6.394;2022-08-06T00:46:15;3.15;;;1.30;;
51921;SDS011;37948;53.260;6.394;2022-08-06T00:48:40;1.75;;;1.55;;
51921;SDS011;37948;53.260;6.394;2022-08-06T00:51:06;1.35;;;1.23;;
51921;SDS011;37948;53.260;6.394;2022-08-06T00:53:32;3.13;;;1.63;;
51921;SDS011;37948;53.260;6.394;2022-08-06T00:55:57;1.95;;;1.60;;
51921;SDS011;37948;53.260;6.394;2022-08-06T00:58:23;1.27;;;1.02;;
51921;SDS011;37948;53.260;6.394;2022-08-06T01:00:49;2.08;;;1.33;;
51921;SDS011;37948;53.260;6.394;2022-08-06T01:03:14;2.40;;;1.48;;
51921;SDS011;37948;53.260;6.394;2022-08-06T01:05:42;2.38;;;1.80;;
51921;SDS011;37948;53.260;6.394;2022-08-06T01:08:09;4.05;;;1.67;;
51921;SDS011;37948;53.260;6.394;2022-08-06T01:10:35;4.20;;;1.20;;
51921;SDS011;37948;53.260;6.394;2022-08-06T01:13:00;2.05;;;1.67;;
51921;SDS011;37948;53.260;6.394;2022-08-06T01:15:26;1.55;;;1.40;;
51921;SDS011;37948;53.260;6.394;2022-08-06T01:17:57;3.38;;;1.30;;
51921;SDS011;37948;53.260;6.394;2022-08-06T01:31:48;3.13;;;1.48;;
51921;SDS011;37948;53.260;6.394;2022-08-06T01:34:37;1.08;;;1.08;;
51921;SDS011;37948;53.260;6.394;2022-08-06T01:37:09;4.60;;;1.02;;
51921;SDS011;37948;53.260;6.394;2022-08-06T01:39:47;2.42;;;1.02;;
51921;SDS011;37948;53.260;6.394;2022-08-06T01:42:17;2.15;;;1.40;;
51921;SDS011;37948;53.260;6.394;2022-08-06T01:44:46;1.52;;;1.10;;
51921;SDS011;37948;53.260;6.394;2022-08-06T01:47:16;1.80;;;1.02;;
51921;SDS011;37948;53.260;6.394;2022-08-06T01:49:50;2.17;;;1.23;;
51921;SDS011;37948;53.260;6.394;2022-08-06T01:52:18;3.13;;;0.98;;
51921;SDS011;37948;53.260;6.394;2022-08-06T01:54:46;4.38;;;1.52;;
51921;SDS011;37948;53.260;6.394;2022-08-06T01:57:15;1.60;;;1.00;;
51921;SDS011;37948;53.260;6.394;2022-08-06T01:59:44;2.10;;;1.00;;
51921;SDS011;37948;53.260;6.394;2022-08-06T02:02:14;1.75;;;1.20;;
51921;SDS011;37948;53.260;6.394;2022-08-06T02:04:42;1.95;;;1.00;;
51921;SDS011;37948;53.260;6.394;2022-08-06T02:07:10;0.93;;;0.88;;
51921;SDS011;37948;53.260;6.394;2022-08-06T02:09:38;1.35;;;0.90;;
51921;SDS011;37948;53.260;6.394;2022-08-06T02:12:09;0.82;;;0.82;;
51921;SDS011;37948;53.260;6.394;2022-08-06T02:14:42;3.33;;;0.90;;
51921;SDS011;37948;53.260;6.394;2022-08-06T02:17:12;2.88;;;0.88;;
51921;SDS011;37948;53.260;6.394;2022-08-06T02:19:43;1.10;;;1.00;;
51921;SDS011;37948;53.260;6.394;2022-08-06T02:22:14;1.55;;;1.10;;
51921;SDS011;37948;53.260;6.394;2022-08-06T02:24:41;1.63;;;1.10;;
51921;SDS011;37948;53.260;6.394;2022-08-06T02:27:08;4.97;;;1.30;;
51921;SDS011;37948;53.260;6.394;2022-08-06T02:29:36;0.90;;;0.77;;
51921;SDS011;37948;53.260;6.394;2022-08-06T02:32:04;1.10;;;0.95;;
51921;SDS011;37948;53.260;6.394;2022-08-06T02:34:30;2.00;;;1.10;;
51921;SDS011;37948;53.260;6.394;2022-08-06T02:37:02;3.33;;;1.05;;
51921;SDS011;37948;53.260;6.394;2022-08-06T02:39:52;2.50;;;1.00;;
51921;SDS011;37948;53.260;6.394;2022-08-06T02:42:36;3.03;;;0.90;;
51921;SDS011;37948;53.260;6.394;2022-08-06T02:45:15;0.85;;;0.85;;
51921;SDS011;37948;53.260;6.394;2022-08-06T02:47:52;0.85;;;0.77;;
51921;SDS011;37948;53.260;6.394;2022-08-06T02:50:27;1.08;;;0.80;;
51921;SDS011;37948;53.260;6.394;2022-08-06T02:52:59;1.23;;;0.73;;
51921;SDS011;37948;53.260;6.394;2022-08-06T02:55:32;0.80;;;0.80;;
51921;SDS011;37948;53.260;6.394;2022-08-06T03:00:36;1.25;;;0.93;;
51921;SDS011;37948;53.260;6.394;2022-08-06T03:03:04;0.90;;;0.80;;
51921;SDS011;37948;53.260;6.394;2022-08-06T03:05:32;1.65;;;0.73;;
51921;SDS011;37948;53.260;6.394;2022-08-06T03:07:59;2.17;;;1.00;;
51921;SDS011;37948;53.260;6.394;2022-08-06T03:10:27;1.90;;;0.80;;
51921;SDS011;37948;53.260;6.394;2022-08-06T03:12:54;1.00;;;1.00;;
51921;SDS011;37948;53.260;6.394;2022-08-06T03:15:22;1.33;;;1.00;;
51921;SDS011;37948;53.260;6.394;2022-08-06T03:17:49;0.75;;;0.75;;
51921;SDS011;37948;53.260;6.394;2022-08-06T03:20:20;1.73;;;1.02;;
51921;SDS011;37948;53.260;6.394;2022-08-06T03:22:48;1.02;;;0.95;;
51921;SDS011;37948;53.260;6.394;2022-08-06T03:25:15;3.42;;;1.00;;
51921;SDS011;37948;53.260;6.394;2022-08-06T03:27:44;1.50;;;1.02;;
51921;SDS011;37948;53.260;6.394;2022-08-06T03:30:12;1.70;;;0.85;;
51921;SDS011;37948;53.260;6.394;2022-08-06T03:32:39;4.63;;;1.10;;
51921;SDS011;37948;53.260;6.394;2022-08-06T03:35:05;1.38;;;0.90;;
51921;SDS011;37948;53.260;6.394;2022-08-06T03:37:32;1.95;;;1.15;;
51921;SDS011;37948;53.260;6.394;2022-08-06T03:39:59;1.20;;;1.10;;
51921;SDS011;37948;53.260;6.394;2022-08-06T03:42:25;1.88;;;1.15;;
51921;SDS011;37948;53.260;6.394;2022-08-06T03:44:51;0.82;;;0.80;;
51921;SDS011;37948;53.260;6.394;2022-08-06T03:47:23;2.67;;;1.23;;
51921;SDS011;37948;53.260;6.394;2022-08-06T03:49:59;3.05;;;1.33;;
51921;SDS011;37948;53.260;6.394;2022-08-06T03:52:35;0.90;;;0.82;;
51921;SDS011;37948;53.260;6.394;2022-08-06T03:55:04;3.38;;;0.93;;
51921;SDS011;37948;53.260;6.394;2022-08-06T03:57:40;1.13;;;1.02;;
51921;SDS011;37948;53.260;6.394;2022-08-06T04:00:08;5.63;;;1.30;;
51921;SDS011;37948;53.260;6.394;2022-08-06T04:02:37;2.75;;;1.30;;
51921;SDS011;37948;53.260;6.394;2022-08-06T04:05:04;1.25;;;1.00;;
51921;SDS011;37948;53.260;6.394;2022-08-06T04:07:31;2.35;;;1.40;;
51921;SDS011;37948;53.260;6.394;2022-08-06T04:09:57;2.50;;;1.15;;
51921;SDS011;37948;53.260;6.394;2022-08-06T04:12:25;1.88;;;1.13;;
51921;SDS011;37948;53.260;6.394;2022-08-06T04:14:52;1.90;;;1.20;;
51921;SDS011;37948;53.260;6.394;2022-08-06T04:17:18;4.50;;;1.30;;
51921;SDS011;37948;53.260;6.394;2022-08-06T04:19:45;1.85;;;1.15;;
51921;SDS011;37948;53.260;6.394;2022-08-06T04:22:13;2.05;;;1.25;;
51921;SDS011;37948;53.260;6.394;2022-08-06T04:24:38;1.50;;;1.08;;
51921;SDS011;37948;53.260;6.394;2022-08-06T04:27:04;5.00;;;1.40;;
51921;SDS011;37948;53.260;6.394;2022-08-06T04:29:32;6.28;;;1.20;;
51921;SDS011;37948;53.260;6.394;2022-08-06T04:32:00;5.38;;;1.33;;
51921;SDS011;37948;53.260;6.394;2022-08-06T04:34:27;2.30;;;1.20;;
51921;SDS011;37948;53.260;6.394;2022-08-06T04:36:54;1.70;;;1.23;;
51921;SDS011;37948;53.260;6.394;2022-08-06T04:39:20;1.30;;;1.10;;
51921;SDS011;37948;53.260;6.394;2022-08-06T04:41:47;5.30;;;1.20;;
51921;SDS011;37948;53.260;6.394;2022-08-06T04:44:14;1.20;;;1.05;;
51921;SDS011;37948;53.260;6.394;2022-08-06T04:46:40;1.45;;;1.20;;
51921;SDS011;37948;53.260;6.394;2022-08-06T04:49:08;2.88;;;1.30;;
51921;SDS011;37948;53.260;6.394;2022-08-06T04:51:34;3.33;;;1.02;;
51921;SDS011;37948;53.260;6.394;2022-08-06T04:54:00;1.75;;;1.15;;
51921;SDS011;37948;53.260;6.394;2022-08-06T04:56:30;1.52;;;1.30;;
51921;SDS011;37948;53.260;6.394;2022-08-06T04:58:56;1.70;;;1.25;;
51921;SDS011;37948;53.260;6.394;2022-08-06T05:01:21;1.67;;;1.58;;
51921;SDS011;37948;53.260;6.394;2022-08-06T05:03:47;2.08;;;1.10;;
51921;SDS011;37948;53.260;6.394;2022-08-06T05:06:17;2.95;;;1.33;;
51921;SDS011;37948;53.260;6.394;2022-08-06T05:09:03;1.17;;;1.13;;
51921;SDS011;37948;53.260;6.394;2022-08-06T05:11:32;1.95;;;1.10;;
51921;SDS011;37948;53.260;6.394;2022-08-06T05:14:04;2.35;;;1.40;;
51921;SDS011;37948;53.260;6.394;2022-08-06T05:16:35;2.63;;;1.33;;
51921;SDS011;37948;53.260;6.394;2022-08-06T05:19:04;2.08;;;1.65;;
51921;SDS011;37948;53.260;6.394;2022-08-06T05:21:35;2.50;;;1.30;;
51921;SDS011;37948;53.260;6.394;2022-08-06T05:24:03;1.52;;;1.40;;
51921;SDS011;37948;53.260;6.394;2022-08-06T05:26:29;2.65;;;1.30;;
51921;SDS011;37948;53.260;6.394;2022-08-06T05:28:55;1.80;;;1.40;;
51921;SDS011;37948;53.260;6.394;2022-08-06T05:31:28;4.63;;;1.52;;
51921;SDS011;37948;53.260;6.394;2022-08-06T05:33:59;1.50;;;1.40;;
51921;SDS011;37948;53.260;6.394;2022-08-06T05:36:26;2.05;;;1.25;;
51921;SDS011;37948;53.260;6.394;2022-08-06T05:38:51;2.20;;;1.42;;
51921;SDS011;37948;53.260;6.394;2022-08-06T05:41:17;1.58;;;1.48;;
51921;SDS011;37948;53.260;6.394;2022-08-06T05:43:43;2.17;;;1.40;;
51921;SDS011;37948;53.260;6.394;2022-08-06T05:46:11;1.50;;;1.40;;
51921;SDS011;37948;53.260;6.394;2022-08-06T05:48:41;4.60;;;1.77;;
51921;SDS011;37948;53.260;6.394;2022-08-06T05:51:11;3.03;;;2.05;;
51921;SDS011;37948;53.260;6.394;2022-08-06T05:53:44;1.65;;;1.55;;
51921;SDS011;37948;53.260;6.394;2022-08-06T05:56:16;3.63;;;1.85;;
51921;SDS011;37948;53.260;6.394;2022-08-06T05:58:50;3.83;;;1.30;;
51921;SDS011;37948;53.260;6.394;2022-08-06T06:01:19;1.83;;;1.42;;
51921;SDS011;37948;53.260;6.394;2022-08-06T06:03:45;3.47;;;1.60;;
51921;SDS011;37948;53.260;6.394;2022-08-06T06:06:11;2.38;;;1.67;;
51921;SDS011;37948;53.260;6.394;2022-08-06T06:08:37;3.13;;;1.60;;
51921;SDS011;37948;53.260;6.394;2022-08-06T06:11:07;3.47;;;1.50;;
51921;SDS011;37948;53.260;6.394;2022-08-06T06:13:33;4.28;;;1.63;;
51921;SDS011;37948;53.260;6.394;2022-08-06T06:16:04;7.20;;;1.50;;
51921;SDS011;37948;53.260;6.394;2022-08-06T06:19:05;1.63;;;1.52;;
51921;SDS011;37948;53.260;6.394;2022-08-06T06:21:43;3.20;;;1.63;;
51921;SDS011;37948;53.260;6.394;2022-08-06T06:24:22;5.18;;;1.58;;
51921;SDS011;37948;53.260;6.394;2022-08-06T06:37:58;2.63;;;1.10;;
51921;SDS011;37948;53.260;6.394;2022-08-06T06:40:53;3.97;;;1.30;;
51921;SDS011;37948;53.260;6.394;2022-08-06T06:43:27;3.33;;;1.27;;
51921;SDS011;37948;53.260;6.394;2022-08-06T06:46:15;2.60;;;1.25;;
51921;SDS011;37948;53.260;6.394;2022-08-06T06:48:55;1.58;;;1.20;;
51921;SDS011;37948;53.260;6.394;2022-08-06T06:53:56;5.57;;;1.15;;
51921;SDS011;37948;53.260;6.394;2022-08-06T06:56:26;5.97;;;1.00;;
51921;SDS011;37948;53.260;6.394;2022-08-06T06:59:04;1.25;;;0.50;;
51921;SDS011;37948;53.260;6.394;2022-08-06T07:01:33;1.95;;;0.80;;
51921;SDS011;37948;53.260;6.394;2022-08-06T07:04:00;2.08;;;0.70;;
51921;SDS011;37948;53.260;6.394;2022-08-06T07:06:30;4.38;;;1.35;;
51921;SDS011;37948;53.260;6.394;2022-08-06T07:08:57;1.38;;;0.60;;
51921;SDS011;37948;53.260;6.394;2022-08-06T07:11:25;4.70;;;0.65;;
51921;SDS011;37948;53.260;6.394;2022-08-06T07:13:53;0.85;;;0.52;;
51921;SDS011;37948;53.260;6.394;2022-08-06T07:16:22;4.20;;;1.27;;
51921;SDS011;37948;53.260;6.394;2022-08-06T07:18:49;5.53;;;1.00;;
51921;SDS011;37948;53.260;6.394;2022-08-06T07:21:16;1.95;;;0.63;;
51921;SDS011;37948;53.260;6.394;2022-08-06T07:23:47;3.80;;;1.10;;
51921;SDS011;37948;53.260;6.394;2022-08-06T07:26:16;1.38;;;0.63;;
51921;SDS011;37948;53.260;6.394;2022-08-06T07:28:45;1.90;;;0.68;;
51921;SDS011;37948;53.260;6.394;2022-08-06T07:31:11;4.28;;;0.50;;
51921;SDS011;37948;53.260;6.394;2022-08-06T07:33:39;3.08;;;0.70;;
51921;SDS011;37948;53.260;6.394;2022-08-06T07:36:06;1.15;;;0.40;;
51921;SDS011;37948;53.260;6.394;2022-08-06T07:38:32;1.17;;;0.50;;
51921;SDS011;37948;53.260;6.394;2022-08-06T07:41:01;1.33;;;0.60;;
51921;SDS011;37948;53.260;6.394;2022-08-06T07:43:31;4.70;;;0.80;;
51921;SDS011;37948;53.260;6.394;2022-08-06T07:46:01;2.00;;;0.47;;
51921;SDS011;37948;53.260;6.394;2022-08-06T07:48:31;1.95;;;0.52;;
51921;SDS011;37948;53.260;6.394;2022-08-06T07:51:02;2.03;;;0.60;;
51921;SDS011;37948;53.260;6.394;2022-08-06T07:53:28;3.20;;;0.88;;
51921;SDS011;37948;53.260;6.394;2022-08-06T07:55:56;0.50;;;0.40;;
51921;SDS011;37948;53.260;6.394;2022-08-06T07:58:22;2.50;;;0.60;;
51921;SDS011;37948;53.260;6.394;2022-08-06T08:00:48;2.67;;;0.75;;
51921;SDS011;37948;53.260;6.394;2022-08-06T08:03:14;3.47;;;0.75;;
51921;SDS011;37948;53.260;6.394;2022-08-06T08:05:58;1.55;;;0.40;;
51921;SDS011;37948;53.260;6.394;2022-08-06T08:08:45;3.83;;;0.40;;
51921;SDS011;37948;53.260;6.394;2022-08-06T08:11:13;2.92;;;0.75;;
51921;SDS011;37948;53.260;6.394;2022-08-06T08:13:41;1.42;;;0.40;;
51921;SDS011;37948;53.260;6.394;2022-08-06T08:16:07;2.90;;;0.75;;
51921;SDS011;37948;53.260;6.394;2022-08-06T08:18:36;1.73;;;0.60;;
51921;SDS011;37948;53.260;6.394;2022-08-06T08:21:03;4.40;;;0.63;;
51921;SDS011;37948;53.260;6.394;2022-08-06T08:23:29;3.03;;;0.60;;
51921;SDS011;37948;53.260;6.394;2022-08-06T08:25:58;2.35;;;0.40;;
51921;SDS011;37948;53.260;6.394;2022-08-06T08:28:26;5.10;;;0.70;;
51921;SDS011;37948;53.260;6.394;2022-08-06T08:30:51;4.65;;;1.17;;
51921;SDS011;37948;53.260;6.394;2022-08-06T08:33:17;5.10;;;0.93;;
51921;SDS011;37948;53.260;6.394;2022-08-06T08:35:45;2.28;;;0.98;;
51921;SDS011;37948;53.260;6.394;2022-08-06T08:38:11;2.28;;;1.20;;
51921;SDS011;37948;53.260;6.394;2022-08-06T08:40:37;3.25;;;0.95;;
51921;SDS011;37948;53.260;6.394;2022-08-06T08:43:03;2.63;;;1.05;;
51921;SDS011;37948;53.260;6.394;2022-08-06T08:45:31;2.88;;;0.90;;
51921;SDS011;37948;53.260;6.394;2022-08-06T08:47:57;3.38;;;0.75;;
51921;SDS011;37948;53.260;6.394;2022-08-06T08:50:32;2.95;;;0.93;;
51921;SDS011;37948;53.260;6.394;2022-08-06T08:53:04;2.15;;;0.90;;
51921;SDS011;37948;53.260;6.394;2022-08-06T08:55:33;1.58;;;0.95;;
51921;SDS011;37948;53.260;6.394;2022-08-06T08:57:59;2.83;;;0.82;;
51921;SDS011;37948;53.260;6.394;2022-08-06T09:00:26;2.63;;;1.17;;
51921;SDS011;37948;53.260;6.394;2022-08-06T09:02:52;2.25;;;1.00;;
51921;SDS011;37948;53.260;6.394;2022-08-06T09:05:18;3.47;;;1.13;;
51921;SDS011;37948;53.260;6.394;2022-08-06T09:07:45;3.50;;;0.80;;
51921;SDS011;37948;53.260;6.394;2022-08-06T09:10:11;2.85;;;1.02;;
51921;SDS011;37948;53.260;6.394;2022-08-06T09:12:37;1.88;;;1.10;;
51921;SDS011;37948;53.260;6.394;2022-08-06T09:15:04;2.38;;;1.27;;
51921;SDS011;37948;53.260;6.394;2022-08-06T09:17:30;1.90;;;1.00;;
51921;SDS011;37948;53.260;6.394;2022-08-06T09:19:55;2.38;;;1.40;;
51921;SDS011;37948;53.260;6.394;2022-08-06T09:22:21;1.17;;;0.80;;
51921;SDS011;37948;53.260;6.394;2022-08-06T09:24:46;1.67;;;0.88;;
51921;SDS011;37948;53.260;6.394;2022-08-06T09:27:13;3.40;;;1.27;;
51921;SDS011;37948;53.260;6.394;2022-08-06T09:29:54;6.13;;;1.20;;
51921;SDS011;37948;53.260;6.394;2022-08-06T09:32:43;2.97;;;1.00;;
51921;SDS011;37948;53.260;6.394;2022-08-06T09:35:20;2.90;;;1.05;;
51921;SDS011;37948;53.260;6.394;2022-08-06T09:38:02;3.40;;;1.17;;
51921;SDS011;37948;53.260;6.394;2022-08-06T09:40:29;2.08;;;1.13;;
51921;SDS011;37948;53.260;6.394;2022-08-06T09:42:55;1.77;;;1.20;;
51921;SDS011;37948;53.260;6.394;2022-08-06T09:45:22;2.20;;;1.30;;
51921;SDS011;37948;53.260;6.394;2022-08-06T09:47:59;4.13;;;1.10;;
51921;SDS011;37948;53.260;6.394;2022-08-06T09:50:36;1.52;;;1.15;;
51921;SDS011;37948;53.260;6.394;2022-08-06T09:53:09;2.38;;;1.30;;
51921;SDS011;37948;53.260;6.394;2022-08-06T09:55:35;2.40;;;0.88;;
51921;SDS011;37948;53.260;6.394;2022-08-06T09:58:02;1.75;;;1.23;;
51921;SDS011;37948;53.260;6.394;2022-08-06T10:00:29;3.33;;;1.27;;
51921;SDS011;37948;53.260;6.394;2022-08-06T10:02:58;3.30;;;1.02;;
51921;SDS011;37948;53.260;6.394;2022-08-06T10:05:26;1.05;;;1.02;;
51921;SDS011;37948;53.260;6.394;2022-08-06T10:13:29;1.73;;;1.13;;
51921;SDS011;37948;53.260;6.394;2022-08-06T10:15:58;4.50;;;1.20;;
51921;SDS011;37948;53.260;6.394;2022-08-06T10:21:06;1.48;;;1.17;;
51921;SDS011;37948;53.260;6.394;2022-08-06T10:23:34;2.60;;;1.50;;
51921;SDS011;37948;53.260;6.394;2022-08-06T10:26:05;7.82;;;1.58;;
51921;SDS011;37948;53.260;6.394;2022-08-06T10:28:36;1.90;;;1.70;;
51921;SDS011;37948;53.260;6.394;2022-08-06T10:31:04;1.15;;;1.15;;
51921;SDS011;37948;53.260;6.394;2022-08-06T10:33:41;2.42;;;1.33;;
51921;SDS011;37948;53.260;6.394;2022-08-06T10:36:38;5.78;;;1.58;;
51921;SDS011;37948;53.260;6.394;2022-08-06T10:39:07;1.75;;;1.35;;
51921;SDS011;37948;53.260;6.394;2022-08-06T10:41:34;1.38;;;1.27;;
51921;SDS011;37948;53.260;6.394;2022-08-06T10:44:04;3.67;;;1.83;;
51921;SDS011;37948;53.260;6.394;2022-08-06T10:46:31;1.45;;;1.35;;
51921;SDS011;37948;53.260;6.394;2022-08-06T10:48:57;1.40;;;1.30;;
51921;SDS011;37948;53.260;6.394;2022-08-06T10:51:24;2.53;;;1.60;;
51921;SDS011;37948;53.260;6.394;2022-08-06T10:53:50;1.25;;;1.15;;
51921;SDS011;37948;53.260;6.394;2022-08-06T10:56:17;1.92;;;1.38;;
51921;SDS011;37948;53.260;6.394;2022-08-06T10:58:43;2.13;;;1.92;;
51921;SDS011;37948;53.260;6.394;2022-08-06T11:03:55;1.50;;;1.40;;
51921;SDS011;37948;53.260;6.394;2022-08-06T11:06:32;2.55;;;1.35;;
51921;SDS011;37948;53.260;6.394;2022-08-06T11:09:18;1.70;;;1.60;;
51921;SDS011;37948;53.260;6.394;2022-08-06T11:14:30;1.90;;;1.70;;
51921;SDS011;37948;53.260;6.394;2022-08-06T11:16:59;1.85;;;1.58;;
51921;SDS011;37948;53.260;6.394;2022-08-06T11:22:07;2.22;;;2.05;;
51921;SDS011;37948;53.260;6.394;2022-08-06T11:24:32;1.92;;;1.80;;
51921;SDS011;37948;53.260;6.394;2022-08-06T11:27:46;2.05;;;1.95;;
51921;SDS011;37948;53.260;6.394;2022-08-06T11:30:20;4.47;;;1.90;;
51921;SDS011;37948;53.260;6.394;2022-08-06T11:33:00;2.40;;;2.20;;
51921;SDS011;37948;53.260;6.394;2022-08-06T11:38:00;2.72;;;2.33;;
51921;SDS011;37948;53.260;6.394;2022-08-06T11:40:27;2.83;;;2.00;;
51921;SDS011;37948;53.260;6.394;2022-08-06T11:43:11;3.50;;;2.10;;
51921;SDS011;37948;53.260;6.394;2022-08-06T11:45:46;6.15;;;2.40;;
51921;SDS011;37948;53.260;6.394;2022-08-06T11:49:07;2.70;;;1.80;;
51921;SDS011;37948;53.260;6.394;2022-08-06T12:02:13;3.83;;;2.72;;
51921;SDS011;37948;53.260;6.394;2022-08-06T12:04:41;4.38;;;2.10;;
51921;SDS011;37948;53.260;6.394;2022-08-06T12:17:38;4.72;;;1.80;;
51921;SDS011;37948;53.260;6.394;2022-08-06T12:20:05;3.15;;;1.95;;
51921;SDS011;37948;53.260;6.394;2022-08-06T12:22:32;2.55;;;1.92;;
51921;SDS011;37948;53.260;6.394;2022-08-06T12:25:01;4.22;;;2.00;;
51921;SDS011;37948;53.260;6.394;2022-08-06T12:27:32;2.85;;;2.58;;
51921;SDS011;37948;53.260;6.394;2022-08-06T12:29:59;2.60;;;1.88;;
51921;SDS011;37948;53.260;6.394;2022-08-06T12:32:30;3.08;;;2.42;;
51921;SDS011;37948;53.260;6.394;2022-08-06T12:35:02;2.53;;;2.10;;
51921;SDS011;37948;53.260;6.394;2022-08-06T12:37:35;2.67;;;2.08;;
51921;SDS011;37948;53.260;6.394;2022-08-06T12:40:06;3.10;;;2.00;;
51921;SDS011;37948;53.260;6.394;2022-08-06T12:42:49;4.40;;;2.03;;
51921;SDS011;37948;53.260;6.394;2022-08-06T12:45:24;2.20;;;2.00;;
51921;SDS011;37948;53.260;6.394;2022-08-06T12:48:00;2.97;;;2.05;;
51921;SDS011;37948;53.260;6.394;2022-08-06T12:50:26;2.47;;;2.28;;
51921;SDS011;37948;53.260;6.394;2022-08-06T12:53:12;2.40;;;2.13;;
51921;SDS011;37948;53.260;6.394;2022-08-06T12:55:49;2.55;;;2.35;;
51921;SDS011;37948;53.260;6.394;2022-08-06T12:58:18;3.20;;;2.55;;
51921;SDS011;37948;53.260;6.394;2022-08-06T13:00:52;2.35;;;2.17;;
51921;SDS011;37948;53.260;6.394;2022-08-06T13:03:20;2.72;;;2.53;;
51921;SDS011;37948;53.260;6.394;2022-08-06T13:05:48;2.30;;;2.20;;
51921;SDS011;37948;53.260;6.394;2022-08-06T13:08:15;2.40;;;2.20;;
51921;SDS011;37948;53.260;6.394;2022-08-06T13:10:50;2.80;;;1.90;;
51921;SDS011;37948;53.260;6.394;2022-08-06T13:13:17;2.53;;;2.30;;
51921;SDS011;37948;53.260;6.394;2022-08-06T13:15:58;4.78;;;2.88;;
51921;SDS011;37948;53.260;6.394;2022-08-06T13:18:26;2.88;;;2.55;;
51921;SDS011;37948;53.260;6.394;2022-08-06T13:20:52;3.30;;;2.60;;
51921;SDS011;37948;53.260;6.394;2022-08-06T13:23:27;2.35;;;2.17;;
51921;SDS011;37948;53.260;6.394;2022-08-06T13:28:36;2.00;;;1.85;;
51921;SDS011;37948;53.260;6.394;2022-08-06T13:31:01;2.55;;;2.28;;
51921;SDS011;37948;53.260;6.394;2022-08-06T13:33:27;2.40;;;2.00;;
51921;SDS011;37948;53.260;6.394;2022-08-06T13:36:04;3.15;;;2.38;;
51921;SDS011;37948;53.260;6.394;2022-08-06T13:38:32;3.58;;;2.25;;
51921;SDS011;37948;53.260;6.394;2022-08-06T13:40:58;3.72;;;2.00;;
51921;SDS011;37948;53.260;6.394;2022-08-06T13:43:38;3.08;;;2.10;;
51921;SDS011;37948;53.260;6.394;2022-08-06T13:46:12;4.45;;;2.00;;
51921;SDS011;37948;53.260;6.394;2022-08-06T13:51:13;1.83;;;1.70;;
51921;SDS011;37948;53.260;6.394;2022-08-06T13:53:39;2.20;;;1.40;;
51921;SDS011;37948;53.260;6.394;2022-08-06T13:56:05;2.30;;;1.65;;
51921;SDS011;37948;53.260;6.394;2022-08-06T13:58:31;4.78;;;2.30;;
51921;SDS011;37948;53.260;6.394;2022-08-06T14:00:57;2.05;;;1.75;;
51921;SDS011;37948;53.260;6.394;2022-08-06T14:03:23;3.63;;;1.70;;
51921;SDS011;37948;53.260;6.394;2022-08-06T14:05:50;4.82;;;2.00;;
51921;SDS011;37948;53.260;6.394;2022-08-06T14:08:16;3.53;;;1.75;;
51921;SDS011;37948;53.260;6.394;2022-08-06T14:10:41;6.97;;;2.30;;
51921;SDS011;37948;53.260;6.394;2022-08-06T14:13:07;6.32;;;1.70;;
51921;SDS011;37948;53.260;6.394;2022-08-06T14:15:46;2.97;;;1.70;;
51921;SDS011;37948;53.260;6.394;2022-08-06T14:18:13;4.13;;;1.83;;
51921;SDS011;37948;53.260;6.394;2022-08-06T14:20:40;3.28;;;1.55;;
51921;SDS011;37948;53.260;6.394;2022-08-06T14:23:06;2.20;;;1.73;;
51921;SDS011;37948;53.260;6.394;2022-08-06T14:25:31;3.63;;;1.50;;
51921;SDS011;37948;53.260;6.394;2022-08-06T14:27:57;3.08;;;2.03;;
51921;SDS011;37948;53.260;6.394;2022-08-06T14:30:24;1.83;;;1.73;;
51921;SDS011;37948;53.260;6.394;2022-08-06T14:32:49;1.60;;;1.50;;
51921;SDS011;37948;53.260;6.394;2022-08-06T14:35:16;3.35;;;1.80;;
51921;SDS011;37948;53.260;6.394;2022-08-06T14:37:42;4.63;;;1.73;;
51921;SDS011;37948;53.260;6.394;2022-08-06T14:40:08;2.78;;;1.70;;
51921;SDS011;37948;53.260;6.394;2022-08-06T14:42:38;1.92;;;1.77;;
51921;SDS011;37948;53.260;6.394;2022-08-06T14:45:22;3.97;;;1.65;;
51921;SDS011;37948;53.260;6.394;2022-08-06T14:47:49;2.30;;;1.60;;
51921;SDS011;37948;53.260;6.394;2022-08-06T14:50:15;4.10;;;1.88;;
51921;SDS011;37948;53.260;6.394;2022-08-06T14:52:40;3.95;;;1.80;;
51921;SDS011;37948;53.260;6.394;2022-08-06T14:55:07;2.10;;;1.85;;
51921;SDS011;37948;53.260;6.394;2022-08-06T14:57:33;2.13;;;1.92;;
51921;SDS011;37948;53.260;6.394;2022-08-06T15:00:01;3.60;;;1.70;;
51921;SDS011;37948;53.260;6.394;2022-08-06T15:02:30;3.78;;;1.92;;
51921;SDS011;37948;53.260;6.394;2022-08-06T15:04:56;1.95;;;1.75;;
51921;SDS011;37948;53.260;6.394;2022-08-06T15:07:23;1.58;;;1.48;;
51921;SDS011;37948;53.260;6.394;2022-08-06T15:09:49;3.78;;;2.00;;
51921;SDS011;37948;53.260;6.394;2022-08-06T15:12:14;1.60;;;1.50;;
51921;SDS011;37948;53.260;6.394;2022-08-06T15:14:41;1.67;;;1.58;;
51921;SDS011;37948;53.260;6.394;2022-08-06T15:17:06;1.60;;;1.50;;
51921;SDS011;37948;53.260;6.394;2022-08-06T15:19:35;1.90;;;1.60;;
51921;SDS011;37948;53.260;6.394;2022-08-06T15:22:01;2.40;;;1.67;;
51921;SDS011;37948;53.260;6.394;2022-08-06T15:24:27;4.18;;;1.83;;
51921;SDS011;37948;53.260;6.394;2022-08-06T15:26:53;4.88;;;2.08;;
51921;SDS011;37948;53.260;6.394;2022-08-06T15:29:22;3.05;;;1.67;;
51921;SDS011;37948;53.260;6.394;2022-08-06T15:31:52;1.70;;;1.50;;
51921;SDS011;37948;53.260;6.394;2022-08-06T15:34:19;6.68;;;1.67;;
51921;SDS011;37948;53.260;6.394;2022-08-06T15:36:44;2.45;;;1.83;;
51921;SDS011;37948;53.260;6.394;2022-08-06T15:39:10;2.85;;;1.95;;
51921;SDS011;37948;53.260;6.394;2022-08-06T15:41:35;3.17;;;1.90;;
51921;SDS011;37948;53.260;6.394;2022-08-06T15:44:01;3.38;;;2.00;;
51921;SDS011;37948;53.260;6.394;2022-08-06T15:46:27;2.80;;;1.70;;
51921;SDS011;37948;53.260;6.394;2022-08-06T15:48:52;3.38;;;1.90;;
51921;SDS011;37948;53.260;6.394;2022-08-06T15:51:27;3.10;;;2.10;;
51921;SDS011;37948;53.260;6.394;2022-08-06T15:53:52;2.20;;;2.05;;
51921;SDS011;37948;53.260;6.394;2022-08-06T15:56:18;4.28;;;1.73;;
51921;SDS011;37948;53.260;6.394;2022-08-06T15:58:45;1.60;;;1.50;;
51921;SDS011;37948;53.260;6.394;2022-08-06T16:01:10;2.75;;;1.85;;
51921;SDS011;37948;53.260;6.394;2022-08-06T16:03:36;4.13;;;1.50;;
51921;SDS011;37948;53.260;6.394;2022-08-06T16:06:02;2.53;;;1.67;;
51921;SDS011;37948;53.260;6.394;2022-08-06T16:08:28;4.18;;;2.10;;
51921;SDS011;37948;53.260;6.394;2022-08-06T16:10:54;2.72;;;2.20;;
51921;SDS011;37948;53.260;6.394;2022-08-06T16:13:19;2.13;;;1.63;;
51921;SDS011;37948;53.260;6.394;2022-08-06T16:15:47;2.10;;;1.90;;